createdAt,value
2017-12-15T00:13:35.277Z,90.81
2017-12-15T00:34:12.740Z,90.23
2017-12-15T00:54:46.481Z,90.12
2017-12-15T01:15:21.762Z,90.67
2017-12-15T01:35:56.708Z,91.38
2017-12-15T01:56:33.227Z,89.96
2017-12-15T02:17:07.445Z,87.65
2017-12-15T02:37:43.448Z,89.59
2017-12-15T02:58:16.896Z,90.03
2017-12-15T03:18:52.763Z,90.08
2017-12-15T03:39:27.108Z,88.27
2017-12-15T04:00:03.304Z,88.58
2017-12-15T04:20:38.573Z,88.88
2017-12-15T04:41:14.769Z,90.78
2017-12-15T05:01:48.197Z,90.08
2017-12-15T05:22:23.162Z,90.27
2017-12-15T05:42:57.205Z,90.91
2017-12-15T06:03:33.704Z,89.74
2017-12-15T06:24:08.669Z,88.87
2017-12-15T06:44:44.244Z,90.77
2017-12-15T07:05:15.226Z,90.38
2017-12-15T07:25:48.647Z,89.92
2017-12-15T07:46:24.065Z,89.17
2017-12-15T08:06:55.198Z,90.15
2017-12-15T08:27:26.164Z,90.44
2017-12-15T08:48:01.440Z,91.16
2017-12-15T09:08:35.790Z,91.33
2017-12-15T09:29:08.911Z,91.33
2017-12-15T09:49:42.033Z,90.67
2017-12-15T10:10:19.564Z,91.38
2017-12-15T10:30:58.835Z,90.84
2017-12-15T10:51:38.105Z,89.54
2017-12-15T11:12:15.100Z,89.21
2017-12-15T11:32:50.629Z,88.82
2017-12-15T11:53:26.564Z,88.97
2017-12-15T12:14:00.038Z,87.23
2017-12-15T12:34:34.035Z,85.73
2017-12-15T12:55:06.235Z,83.87
2017-12-15T13:15:41.815Z,84.75
2017-12-15T13:36:16.775Z,83.98
2017-12-15T13:56:52.979Z,85.34
2017-12-15T14:17:26.092Z,86.50
2017-12-15T14:38:01.363Z,87.40
2017-12-15T14:58:36.636Z,88.76
2017-12-15T15:19:12.825Z,87.89
2017-12-15T15:39:48.377Z,90.10
2017-12-15T16:00:23.373Z,90.82
2017-12-15T16:20:57.416Z,91.01
2017-12-15T16:41:30.844Z,91.93
2017-12-15T17:02:03.964Z,92.23
2017-12-15T17:22:37.084Z,92.41
2017-12-15T17:43:12.356Z,92.32
2017-12-15T18:03:48.550Z,90.61
2017-12-15T18:24:25.977Z,91.41
2017-12-15T18:45:00.020Z,89.78
2017-12-15T19:05:35.293Z,90.07
2017-12-15T19:26:07.492Z,90.22
2017-12-15T19:46:44.003Z,90.56
2017-12-15T20:07:18.958Z,91.84
2017-12-15T20:27:54.226Z,92.34
2017-12-15T20:48:29.500Z,91.21
2017-12-15T21:09:05.697Z,92.28
2017-12-15T21:29:41.890Z,92.06
2017-12-15T21:50:15.376Z,91.95
2017-12-15T22:10:48.441Z,92.00
2017-12-15T22:31:22.480Z,90.49
2017-12-15T22:51:57.755Z,90.70
2017-12-15T23:12:33.023Z,91.42
2017-12-15T23:33:06.149Z,92.32
2017-12-15T23:53:41.416Z,92.25
